首页
METAR-TAF:

METAR-TAF

机场 :

小萨尔加多国际机场

阿雷格里港, 南里奥格兰德州, 巴西

纬度: 30-00S, 经度: 051-11W, 海拔: 3米

当前天气观测

该预报发布于13分钟前的04:00 UTC
风速8节,风向东转东南
温度 22°C
湿度 73%
气压 1015 hPa
能见度10公里或以上
1500米以下无云,无积雨云

METAR: SBPA 260400Z 11008KT CAVOK 22/17 Q1015

时间: 01:13 (04:13 UTC)

预报

该预报发布于7小时和13分钟前的21:00 UTC
预报有效从26日的 00点(UTC)到 26日的 24点(UTC)
风速8节,风向
能见度10公里或以上
少量云层高于4000英尺
成为
从 26日的 06点(UTC)到 26日的 08点(UTC)
风速3节,风向东转东南
成为
从 26日的 10点(UTC)到 26日的 12点(UTC)
风速8节,风向东转东南
散云层高于2000英尺
成为
从 26日的 14点(UTC)到 26日的 16点(UTC)
风速10节,风向
散云层高于4000英尺

TAF: SBPA 252100Z 2600/2624 09008KT 9999 FEW040 TN20/2608Z TX30/2618Z BECMG 2606/2608 12003KT BECMG 2610/2612 12008KT SCT020 BECMG 2614/2616 09010KT SCT040 RMK PEO

超过4000个机场的气象观测和天气预报(METAR&TAF报告)。

可查询的气象台以黄色和红色小点在地图上表示。

将鼠标移到小点上方,可查看气象台名称。

然后点击查看天气观测和预报。

如需切换地图:点击带黑十字的绿色按钮放大地图;点击带横线的绿色按钮缩小地图;或者点击绿色箭头查看邻近地区的地图。


METAR-TAF: